sensor_id;sensor_type;location;lat;lon;timestamp;P1;durP1;ratioP1;P2;durP2;ratioP2
56830;SDS011;42713;42.676;23.352;2024-02-26T00:00:46;32.95;;;15.35;;
56830;SDS011;42713;42.676;23.352;2024-02-26T00:03:11;28.90;;;14.75;;
56830;SDS011;42713;42.676;23.352;2024-02-26T00:05:37;32.72;;;15.60;;
56830;SDS011;42713;42.676;23.352;2024-02-26T00:08:04;28.20;;;14.68;;
56830;SDS011;42713;42.676;23.352;2024-02-26T00:10:29;28.10;;;15.00;;
56830;SDS011;42713;42.676;23.352;2024-02-26T00:12:55;38.78;;;21.77;;
56830;SDS011;42713;42.676;23.352;2024-02-26T00:15:20;37.88;;;19.50;;
56830;SDS011;42713;42.676;23.352;2024-02-26T00:17:46;38.63;;;21.75;;
56830;SDS011;42713;42.676;23.352;2024-02-26T00:20:11;44.28;;;22.17;;
56830;SDS011;42713;42.676;23.352;2024-02-26T00:22:37;36.20;;;19.90;;
56830;SDS011;42713;42.676;23.352;2024-02-26T00:25:03;31.02;;;17.83;;
56830;SDS011;42713;42.676;23.352;2024-02-26T00:27:32;36.35;;;19.33;;
56830;SDS011;42713;42.676;23.352;2024-02-26T00:29:57;34.20;;;18.38;;
56830;SDS011;42713;42.676;23.352;2024-02-26T00:32:23;36.13;;;20.48;;
56830;SDS011;42713;42.676;23.352;2024-02-26T00:34:48;35.35;;;20.30;;
56830;SDS011;42713;42.676;23.352;2024-02-26T00:37:15;34.60;;;16.88;;
56830;SDS011;42713;42.676;23.352;2024-02-26T00:39:40;38.33;;;15.68;;
56830;SDS011;42713;42.676;23.352;2024-02-26T00:42:06;30.30;;;16.80;;
56830;SDS011;42713;42.676;23.352;2024-02-26T00:44:32;35.42;;;17.27;;
56830;SDS011;42713;42.676;23.352;2024-02-26T00:46:57;31.13;;;16.90;;
56830;SDS011;42713;42.676;23.352;2024-02-26T00:49:23;34.63;;;17.00;;
56830;SDS011;42713;42.676;23.352;2024-02-26T00:51:48;31.00;;;17.20;;
56830;SDS011;42713;42.676;23.352;2024-02-26T00:54:13;37.05;;;18.65;;
56830;SDS011;42713;42.676;23.352;2024-02-26T00:56:39;28.33;;;16.45;;
56830;SDS011;42713;42.676;23.352;2024-02-26T00:59:04;35.45;;;18.55;;
56830;SDS011;42713;42.676;23.352;2024-02-26T01:01:30;29.60;;;16.90;;
56830;SDS011;42713;42.676;23.352;2024-02-26T01:03:55;35.75;;;17.10;;
56830;SDS011;42713;42.676;23.352;2024-02-26T01:06:21;31.42;;;17.88;;
56830;SDS011;42713;42.676;23.352;2024-02-26T01:08:49;36.22;;;18.52;;
56830;SDS011;42713;42.676;23.352;2024-02-26T01:11:15;33.95;;;19.48;;
56830;SDS011;42713;42.676;23.352;2024-02-26T01:13:41;32.80;;;18.92;;
56830;SDS011;42713;42.676;23.352;2024-02-26T01:16:06;33.13;;;18.70;;
56830;SDS011;42713;42.676;23.352;2024-02-26T01:18:31;32.35;;;18.27;;
56830;SDS011;42713;42.676;23.352;2024-02-26T01:20:57;32.78;;;19.00;;
56830;SDS011;42713;42.676;23.352;2024-02-26T01:23:22;41.90;;;20.90;;
56830;SDS011;42713;42.676;23.352;2024-02-26T01:25:48;42.10;;;21.70;;
56830;SDS011;42713;42.676;23.352;2024-02-26T01:28:14;43.20;;;22.52;;
56830;SDS011;42713;42.676;23.352;2024-02-26T01:30:39;39.45;;;20.85;;
56830;SDS011;42713;42.676;23.352;2024-02-26T01:33:05;38.42;;;20.90;;
56830;SDS011;42713;42.676;23.352;2024-02-26T01:35:32;32.35;;;19.55;;
56830;SDS011;42713;42.676;23.352;2024-02-26T01:37:57;40.05;;;21.23;;
56830;SDS011;42713;42.676;23.352;2024-02-26T01:40:26;37.92;;;22.00;;
56830;SDS011;42713;42.676;23.352;2024-02-26T01:42:52;38.33;;;21.88;;
56830;SDS011;42713;42.676;23.352;2024-02-26T01:45:18;37.00;;;22.05;;
56830;SDS011;42713;42.676;23.352;2024-02-26T01:47:52;39.45;;;21.65;;
56830;SDS011;42713;42.676;23.352;2024-02-26T01:50:37;35.58;;;20.60;;
56830;SDS011;42713;42.676;23.352;2024-02-26T01:53:03;35.17;;;20.85;;
56830;SDS011;42713;42.676;23.352;2024-02-26T01:55:29;33.78;;;19.98;;
56830;SDS011;42713;42.676;23.352;2024-02-26T01:57:55;42.92;;;22.98;;
56830;SDS011;42713;42.676;23.352;2024-02-26T02:00:20;36.97;;;20.50;;
56830;SDS011;42713;42.676;23.352;2024-02-26T02:02:47;42.97;;;21.98;;
56830;SDS011;42713;42.676;23.352;2024-02-26T02:05:16;41.90;;;22.75;;
56830;SDS011;42713;42.676;23.352;2024-02-26T02:07:45;38.75;;;21.88;;
56830;SDS011;42713;42.676;23.352;2024-02-26T02:10:11;38.47;;;22.15;;
56830;SDS011;42713;42.676;23.352;2024-02-26T02:12:37;41.95;;;22.80;;
56830;SDS011;42713;42.676;23.352;2024-02-26T02:15:05;37.75;;;20.88;;
56830;SDS011;42713;42.676;23.352;2024-02-26T02:17:31;40.53;;;21.20;;
56830;SDS011;42713;42.676;23.352;2024-02-26T02:19:57;40.20;;;22.75;;
56830;SDS011;42713;42.676;23.352;2024-02-26T02:22:22;38.35;;;22.48;;
56830;SDS011;42713;42.676;23.352;2024-02-26T02:24:48;44.00;;;22.80;;
56830;SDS011;42713;42.676;23.352;2024-02-26T02:27:15;40.55;;;22.35;;
56830;SDS011;42713;42.676;23.352;2024-02-26T02:29:40;40.28;;;20.38;;
56830;SDS011;42713;42.676;23.352;2024-02-26T02:32:07;35.42;;;21.10;;
56830;SDS011;42713;42.676;23.352;2024-02-26T02:34:33;40.42;;;21.40;;
56830;SDS011;42713;42.676;23.352;2024-02-26T02:36:59;40.15;;;21.73;;
56830;SDS011;42713;42.676;23.352;2024-02-26T02:39:25;39.47;;;21.27;;
56830;SDS011;42713;42.676;23.352;2024-02-26T02:41:50;41.10;;;21.70;;
56830;SDS011;42713;42.676;23.352;2024-02-26T02:44:15;34.85;;;19.98;;
56830;SDS011;42713;42.676;23.352;2024-02-26T02:46:41;37.45;;;20.80;;
56830;SDS011;42713;42.676;23.352;2024-02-26T02:49:09;34.90;;;19.63;;
56830;SDS011;42713;42.676;23.352;2024-02-26T02:51:35;35.22;;;19.13;;
56830;SDS011;42713;42.676;23.352;2024-02-26T02:54:02;35.92;;;19.33;;
56830;SDS011;42713;42.676;23.352;2024-02-26T02:56:27;40.40;;;20.00;;
56830;SDS011;42713;42.676;23.352;2024-02-26T02:58:53;35.33;;;20.33;;
56830;SDS011;42713;42.676;23.352;2024-02-26T03:01:18;35.17;;;20.10;;
56830;SDS011;42713;42.676;23.352;2024-02-26T03:03:44;38.38;;;20.08;;
56830;SDS011;42713;42.676;23.352;2024-02-26T03:06:10;34.13;;;19.75;;
56830;SDS011;42713;42.676;23.352;2024-02-26T03:08:35;39.20;;;19.70;;
56830;SDS011;42713;42.676;23.352;2024-02-26T03:11:05;37.25;;;19.70;;
56830;SDS011;42713;42.676;23.352;2024-02-26T03:13:30;35.53;;;19.60;;
56830;SDS011;42713;42.676;23.352;2024-02-26T03:15:56;37.00;;;17.85;;
56830;SDS011;42713;42.676;23.352;2024-02-26T03:18:22;36.30;;;18.38;;
56830;SDS011;42713;42.676;23.352;2024-02-26T03:21:06;32.67;;;18.80;;
56830;SDS011;42713;42.676;23.352;2024-02-26T03:23:32;35.78;;;18.90;;
56830;SDS011;42713;42.676;23.352;2024-02-26T03:26:02;38.20;;;19.60;;
56830;SDS011;42713;42.676;23.352;2024-02-26T03:28:30;37.70;;;18.65;;
56830;SDS011;42713;42.676;23.352;2024-02-26T03:30:58;36.00;;;18.90;;
56830;SDS011;42713;42.676;23.352;2024-02-26T03:33:25;37.92;;;18.30;;
56830;SDS011;42713;42.676;23.352;2024-02-26T03:35:50;33.47;;;18.58;;
56830;SDS011;42713;42.676;23.352;2024-02-26T03:38:16;35.80;;;18.15;;
56830;SDS011;42713;42.676;23.352;2024-02-26T03:40:41;34.15;;;18.33;;
56830;SDS011;42713;42.676;23.352;2024-02-26T03:43:06;33.85;;;17.70;;
56830;SDS011;42713;42.676;23.352;2024-02-26T03:45:35;30.27;;;18.27;;
56830;SDS011;42713;42.676;23.352;2024-02-26T03:48:12;34.22;;;19.17;;
56830;SDS011;42713;42.676;23.352;2024-02-26T03:50:39;33.08;;;18.45;;
56830;SDS011;42713;42.676;23.352;2024-02-26T03:53:04;30.05;;;16.55;;
56830;SDS011;42713;42.676;23.352;2024-02-26T03:55:30;35.22;;;18.20;;
56830;SDS011;42713;42.676;23.352;2024-02-26T03:57:55;32.13;;;18.08;;
56830;SDS011;42713;42.676;23.352;2024-02-26T04:00:21;29.52;;;16.23;;
56830;SDS011;42713;42.676;23.352;2024-02-26T04:02:47;32.90;;;17.52;;
56830;SDS011;42713;42.676;23.352;2024-02-26T04:05:13;32.17;;;18.33;;
56830;SDS011;42713;42.676;23.352;2024-02-26T04:07:39;31.13;;;17.63;;
56830;SDS011;42713;42.676;23.352;2024-02-26T04:10:09;34.92;;;18.40;;
56830;SDS011;42713;42.676;23.352;2024-02-26T04:12:35;33.40;;;17.85;;
56830;SDS011;42713;42.676;23.352;2024-02-26T04:15:03;30.88;;;17.85;;
56830;SDS011;42713;42.676;23.352;2024-02-26T04:17:29;28.98;;;17.58;;
56830;SDS011;42713;42.676;23.352;2024-02-26T04:19:55;31.98;;;18.63;;
56830;SDS011;42713;42.676;23.352;2024-02-26T04:22:20;34.08;;;17.73;;
56830;SDS011;42713;42.676;23.352;2024-02-26T04:24:46;41.13;;;19.17;;
56830;SDS011;42713;42.676;23.352;2024-02-26T04:27:11;28.73;;;17.00;;
56830;SDS011;42713;42.676;23.352;2024-02-26T04:29:37;34.60;;;20.25;;
56830;SDS011;42713;42.676;23.352;2024-02-26T04:32:02;34.88;;;20.20;;
56830;SDS011;42713;42.676;23.352;2024-02-26T04:34:30;39.65;;;21.10;;
56830;SDS011;42713;42.676;23.352;2024-02-26T04:36:55;44.13;;;20.20;;
56830;SDS011;42713;42.676;23.352;2024-02-26T04:39:21;39.42;;;21.08;;
56830;SDS011;42713;42.676;23.352;2024-02-26T04:41:46;33.95;;;20.20;;
56830;SDS011;42713;42.676;23.352;2024-02-26T04:44:12;40.20;;;21.42;;
56830;SDS011;42713;42.676;23.352;2024-02-26T04:46:37;37.45;;;20.67;;
56830;SDS011;42713;42.676;23.352;2024-02-26T04:49:03;41.13;;;21.42;;
56830;SDS011;42713;42.676;23.352;2024-02-26T04:51:28;38.22;;;21.13;;
56830;SDS011;42713;42.676;23.352;2024-02-26T04:53:53;37.50;;;20.70;;
56830;SDS011;42713;42.676;23.352;2024-02-26T04:56:20;39.03;;;19.98;;
56830;SDS011;42713;42.676;23.352;2024-02-26T04:58:46;31.95;;;18.40;;
56830;SDS011;42713;42.676;23.352;2024-02-26T05:01:12;32.78;;;17.40;;
56830;SDS011;42713;42.676;23.352;2024-02-26T05:03:38;30.95;;;17.80;;
56830;SDS011;42713;42.676;23.352;2024-02-26T05:06:04;28.95;;;17.10;;
56830;SDS011;42713;42.676;23.352;2024-02-26T05:08:30;34.33;;;18.42;;
56830;SDS011;42713;42.676;23.352;2024-02-26T05:10:56;29.33;;;16.98;;
56830;SDS011;42713;42.676;23.352;2024-02-26T05:13:21;35.70;;;16.98;;
56830;SDS011;42713;42.676;23.352;2024-02-26T05:15:47;30.35;;;18.08;;
56830;SDS011;42713;42.676;23.352;2024-02-26T05:18:14;32.20;;;17.88;;
56830;SDS011;42713;42.676;23.352;2024-02-26T05:20:40;34.25;;;18.55;;
56830;SDS011;42713;42.676;23.352;2024-02-26T05:23:06;30.65;;;18.00;;
56830;SDS011;42713;42.676;23.352;2024-02-26T05:25:31;31.75;;;19.02;;
56830;SDS011;42713;42.676;23.352;2024-02-26T05:27:56;36.40;;;18.70;;
56830;SDS011;42713;42.676;23.352;2024-02-26T05:30:22;33.00;;;17.90;;
56830;SDS011;42713;42.676;23.352;2024-02-26T05:32:47;35.28;;;17.92;;
56830;SDS011;42713;42.676;23.352;2024-02-26T05:35:13;34.20;;;17.55;;
56830;SDS011;42713;42.676;23.352;2024-02-26T05:37:38;36.78;;;19.05;;
56830;SDS011;42713;42.676;23.352;2024-02-26T05:40:04;35.42;;;18.40;;
56830;SDS011;42713;42.676;23.352;2024-02-26T05:42:30;34.17;;;20.45;;
56830;SDS011;42713;42.676;23.352;2024-02-26T05:44:56;38.58;;;19.73;;
56830;SDS011;42713;42.676;23.352;2024-02-26T05:47:22;35.58;;;19.58;;
56830;SDS011;42713;42.676;23.352;2024-02-26T05:49:47;34.88;;;19.88;;
56830;SDS011;42713;42.676;23.352;2024-02-26T05:52:13;40.70;;;20.20;;
56830;SDS011;42713;42.676;23.352;2024-02-26T05:54:39;30.33;;;18.33;;
56830;SDS011;42713;42.676;23.352;2024-02-26T05:57:05;38.85;;;19.70;;
56830;SDS011;42713;42.676;23.352;2024-02-26T05:59:30;38.25;;;19.33;;
56830;SDS011;42713;42.676;23.352;2024-02-26T06:01:56;35.60;;;16.90;;
56830;SDS011;42713;42.676;23.352;2024-02-26T06:04:21;37.85;;;17.25;;
56830;SDS011;42713;42.676;23.352;2024-02-26T06:07:05;29.27;;;14.45;;
56830;SDS011;42713;42.676;23.352;2024-02-26T06:09:50;28.52;;;16.00;;
56830;SDS011;42713;42.676;23.352;2024-02-26T06:12:15;29.95;;;18.00;;
56830;SDS011;42713;42.676;23.352;2024-02-26T06:14:44;32.70;;;17.40;;
56830;SDS011;42713;42.676;23.352;2024-02-26T06:17:09;26.58;;;15.15;;
56830;SDS011;42713;42.676;23.352;2024-02-26T06:19:35;34.25;;;18.15;;
56830;SDS011;42713;42.676;23.352;2024-02-26T06:22:00;29.52;;;17.95;;
56830;SDS011;42713;42.676;23.352;2024-02-26T06:24:26;33.47;;;17.55;;
56830;SDS011;42713;42.676;23.352;2024-02-26T06:26:51;34.70;;;17.73;;
56830;SDS011;42713;42.676;23.352;2024-02-26T06:29:17;31.80;;;17.83;;
56830;SDS011;42713;42.676;23.352;2024-02-26T06:31:42;31.92;;;17.85;;
56830;SDS011;42713;42.676;23.352;2024-02-26T06:34:08;31.63;;;17.55;;
56830;SDS011;42713;42.676;23.352;2024-02-26T06:36:34;33.50;;;17.83;;
56830;SDS011;42713;42.676;23.352;2024-02-26T06:38:59;31.70;;;17.17;;
56830;SDS011;42713;42.676;23.352;2024-02-26T06:41:25;32.65;;;17.90;;
56830;SDS011;42713;42.676;23.352;2024-02-26T06:43:53;32.08;;;18.58;;
56830;SDS011;42713;42.676;23.352;2024-02-26T06:46:19;33.55;;;18.30;;
56830;SDS011;42713;42.676;23.352;2024-02-26T06:48:44;32.53;;;17.95;;
56830;SDS011;42713;42.676;23.352;2024-02-26T06:51:10;30.30;;;16.73;;
56830;SDS011;42713;42.676;23.352;2024-02-26T06:53:35;30.33;;;17.45;;
56830;SDS011;42713;42.676;23.352;2024-02-26T06:56:00;32.55;;;18.10;;
56830;SDS011;42713;42.676;23.352;2024-02-26T06:58:26;31.65;;;17.52;;
56830;SDS011;42713;42.676;23.352;2024-02-26T07:00:51;32.97;;;17.42;;
56830;SDS011;42713;42.676;23.352;2024-02-26T07:03:16;35.10;;;17.48;;
56830;SDS011;42713;42.676;23.352;2024-02-26T07:05:42;38.05;;;18.52;;
56830;SDS011;42713;42.676;23.352;2024-02-26T07:08:09;30.60;;;17.55;;
56830;SDS011;42713;42.676;23.352;2024-02-26T07:10:34;31.67;;;17.27;;
56830;SDS011;42713;42.676;23.352;2024-02-26T07:13:18;30.40;;;16.83;;
56830;SDS011;42713;42.676;23.352;2024-02-26T07:15:44;31.05;;;17.17;;
56830;SDS011;42713;42.676;23.352;2024-02-26T07:18:09;31.35;;;16.30;;
56830;SDS011;42713;42.676;23.352;2024-02-26T07:20:35;37.50;;;17.83;;
56830;SDS011;42713;42.676;23.352;2024-02-26T07:23:01;27.15;;;16.35;;
56830;SDS011;42713;42.676;23.352;2024-02-26T07:25:29;28.35;;;16.17;;
56830;SDS011;42713;42.676;23.352;2024-02-26T07:27:55;27.42;;;16.00;;
56830;SDS011;42713;42.676;23.352;2024-02-26T07:30:20;27.58;;;16.00;;
56830;SDS011;42713;42.676;23.352;2024-02-26T07:32:46;34.55;;;16.33;;
56830;SDS011;42713;42.676;23.352;2024-02-26T07:35:11;33.65;;;17.75;;
56830;SDS011;42713;42.676;23.352;2024-02-26T07:37:36;36.30;;;17.83;;
56830;SDS011;42713;42.676;23.352;2024-02-26T07:40:03;32.13;;;18.58;;
56830;SDS011;42713;42.676;23.352;2024-02-26T07:42:28;31.58;;;18.30;;
56830;SDS011;42713;42.676;23.352;2024-02-26T07:44:54;37.15;;;18.67;;
56830;SDS011;42713;42.676;23.352;2024-02-26T07:47:20;36.55;;;20.30;;
56830;SDS011;42713;42.676;23.352;2024-02-26T07:49:46;39.95;;;21.95;;
56830;SDS011;42713;42.676;23.352;2024-02-26T07:52:11;41.10;;;22.63;;
56830;SDS011;42713;42.676;23.352;2024-02-26T07:54:37;41.22;;;24.13;;
56830;SDS011;42713;42.676;23.352;2024-02-26T07:57:02;49.17;;;26.73;;
56830;SDS011;42713;42.676;23.352;2024-02-26T07:59:30;45.33;;;27.08;;
56830;SDS011;42713;42.676;23.352;2024-02-26T08:01:56;46.67;;;28.85;;
56830;SDS011;42713;42.676;23.352;2024-02-26T08:04:24;44.13;;;26.90;;
56830;SDS011;42713;42.676;23.352;2024-02-26T08:06:54;40.90;;;25.25;;
56830;SDS011;42713;42.676;23.352;2024-02-26T08:09:21;44.13;;;25.10;;
56830;SDS011;42713;42.676;23.352;2024-02-26T08:11:46;46.05;;;25.25;;
56830;SDS011;42713;42.676;23.352;2024-02-26T08:14:12;47.35;;;26.50;;
56830;SDS011;42713;42.676;23.352;2024-02-26T08:16:37;39.08;;;21.67;;
56830;SDS011;42713;42.676;23.352;2024-02-26T08:19:06;40.45;;;23.25;;
56830;SDS011;42713;42.676;23.352;2024-02-26T08:21:32;38.33;;;22.88;;
56830;SDS011;42713;42.676;23.352;2024-02-26T08:23:58;40.05;;;22.67;;
56830;SDS011;42713;42.676;23.352;2024-02-26T08:26:23;39.63;;;21.92;;
56830;SDS011;42713;42.676;23.352;2024-02-26T08:28:49;36.70;;;20.83;;
56830;SDS011;42713;42.676;23.352;2024-02-26T08:31:16;40.80;;;21.65;;
56830;SDS011;42713;42.676;23.352;2024-02-26T08:33:43;42.22;;;21.05;;
56830;SDS011;42713;42.676;23.352;2024-02-26T08:36:08;37.47;;;19.77;;
56830;SDS011;42713;42.676;23.352;2024-02-26T08:38:34;30.38;;;19.30;;
56830;SDS011;42713;42.676;23.352;2024-02-26T08:41:04;32.17;;;16.45;;
56830;SDS011;42713;42.676;23.352;2024-02-26T08:43:29;28.30;;;14.93;;
56830;SDS011;42713;42.676;23.352;2024-02-26T08:45:56;23.38;;;10.75;;
56830;SDS011;42713;42.676;23.352;2024-02-26T08:48:22;20.33;;;10.07;;
56830;SDS011;42713;42.676;23.352;2024-02-26T08:50:48;18.48;;;9.32;;
56830;SDS011;42713;42.676;23.352;2024-02-26T08:53:13;19.35;;;9.63;;
56830;SDS011;42713;42.676;23.352;2024-02-26T08:55:38;21.00;;;9.90;;
56830;SDS011;42713;42.676;23.352;2024-02-26T08:58:04;26.30;;;10.90;;
56830;SDS011;42713;42.676;23.352;2024-02-26T09:00:30;21.63;;;10.75;;
56830;SDS011;42713;42.676;23.352;2024-02-26T09:02:56;19.15;;;8.80;;
56830;SDS011;42713;42.676;23.352;2024-02-26T09:05:21;16.77;;;9.05;;
56830;SDS011;42713;42.676;23.352;2024-02-26T09:07:47;18.33;;;8.32;;
56830;SDS011;42713;42.676;23.352;2024-02-26T09:10:12;17.05;;;8.05;;
56830;SDS011;42713;42.676;23.352;2024-02-26T09:12:38;17.25;;;8.27;;
56830;SDS011;42713;42.676;23.352;2024-02-26T09:15:05;16.83;;;7.63;;
56830;SDS011;42713;42.676;23.352;2024-02-26T09:17:31;20.67;;;7.43;;
56830;SDS011;42713;42.676;23.352;2024-02-26T09:19:57;14.77;;;7.40;;
56830;SDS011;42713;42.676;23.352;2024-02-26T09:22:22;13.68;;;7.05;;
56830;SDS011;42713;42.676;23.352;2024-02-26T09:24:48;17.45;;;7.35;;
56830;SDS011;42713;42.676;23.352;2024-02-26T09:27:15;13.05;;;6.72;;
56830;SDS011;42713;42.676;23.352;2024-02-26T09:29:41;14.55;;;7.40;;
56830;SDS011;42713;42.676;23.352;2024-02-26T09:32:07;11.48;;;6.35;;
56830;SDS011;42713;42.676;23.352;2024-02-26T09:34:32;15.52;;;5.95;;
56830;SDS011;42713;42.676;23.352;2024-02-26T09:36:59;16.33;;;6.22;;
56830;SDS011;42713;42.676;23.352;2024-02-26T09:39:25;13.50;;;6.15;;
56830;SDS011;42713;42.676;23.352;2024-02-26T09:41:51;14.75;;;6.18;;
56830;SDS011;42713;42.676;23.352;2024-02-26T09:44:20;14.23;;;5.72;;
56830;SDS011;42713;42.676;23.352;2024-02-26T09:47:04;17.73;;;5.43;;
56830;SDS011;42713;42.676;23.352;2024-02-26T09:49:32;13.88;;;5.50;;
56830;SDS011;42713;42.676;23.352;2024-02-26T09:51:58;10.35;;;5.22;;
56830;SDS011;42713;42.676;23.352;2024-02-26T09:54:27;10.15;;;5.03;;
56830;SDS011;42713;42.676;23.352;2024-02-26T09:56:53;17.55;;;5.90;;
56830;SDS011;42713;42.676;23.352;2024-02-26T09:59:25;12.23;;;5.00;;
56830;SDS011;42713;42.676;23.352;2024-02-26T10:01:52;12.15;;;5.50;;
56830;SDS011;42713;42.676;23.352;2024-02-26T10:04:18;12.55;;;5.00;;
56830;SDS011;42713;42.676;23.352;2024-02-26T10:06:45;11.52;;;5.20;;
56830;SDS011;42713;42.676;23.352;2024-02-26T10:09:12;13.73;;;4.88;;
56830;SDS011;42713;42.676;23.352;2024-02-26T10:11:38;10.73;;;4.78;;
56830;SDS011;42713;42.676;23.352;2024-02-26T10:14:08;12.25;;;5.38;;
56830;SDS011;42713;42.676;23.352;2024-02-26T10:16:34;12.52;;;5.40;;
56830;SDS011;42713;42.676;23.352;2024-02-26T10:19:00;12.10;;;5.45;;
56830;SDS011;42713;42.676;23.352;2024-02-26T10:21:26;11.65;;;5.22;;
56830;SDS011;42713;42.676;23.352;2024-02-26T10:23:51;11.65;;;4.78;;
56830;SDS011;42713;42.676;23.352;2024-02-26T10:26:17;10.77;;;4.80;;
56830;SDS011;42713;42.676;23.352;2024-02-26T10:28:43;10.68;;;5.50;;
56830;SDS011;42713;42.676;23.352;2024-02-26T10:31:10;12.52;;;5.55;;
56830;SDS011;42713;42.676;23.352;2024-02-26T10:33:38;13.88;;;4.95;;
56830;SDS011;42713;42.676;23.352;2024-02-26T10:36:04;10.65;;;5.00;;
56830;SDS011;42713;42.676;23.352;2024-02-26T10:38:35;12.60;;;4.68;;
56830;SDS011;42713;42.676;23.352;2024-02-26T10:41:05;8.50;;;4.45;;
56830;SDS011;42713;42.676;23.352;2024-02-26T10:43:31;10.27;;;4.80;;
56830;SDS011;42713;42.676;23.352;2024-02-26T10:45:57;14.18;;;4.45;;
56830;SDS011;42713;42.676;23.352;2024-02-26T10:48:23;10.43;;;4.85;;
56830;SDS011;42713;42.676;23.352;2024-02-26T10:50:49;10.20;;;4.90;;
56830;SDS011;42713;42.676;23.352;2024-02-26T10:53:22;11.82;;;5.72;;
56830;SDS011;42713;42.676;23.352;2024-02-26T10:55:48;10.20;;;4.40;;
56830;SDS011;42713;42.676;23.352;2024-02-26T10:58:19;12.38;;;4.40;;
56830;SDS011;42713;42.676;23.352;2024-02-26T11:00:47;10.95;;;4.55;;
56830;SDS011;42713;42.676;23.352;2024-02-26T11:03:33;13.25;;;4.72;;
56830;SDS011;42713;42.676;23.352;2024-02-26T11:05:59;13.35;;;4.78;;
56830;SDS011;42713;42.676;23.352;2024-02-26T11:08:27;9.23;;;4.60;;
56830;SDS011;42713;42.676;23.352;2024-02-26T11:11:12;11.50;;;4.50;;
56830;SDS011;42713;42.676;23.352;2024-02-26T11:13:40;11.77;;;4.90;;
56830;SDS011;42713;42.676;23.352;2024-02-26T11:16:11;9.73;;;4.40;;
56830;SDS011;42713;42.676;23.352;2024-02-26T11:18:39;12.55;;;4.70;;
56830;SDS011;42713;42.676;23.352;2024-02-26T11:21:07;11.10;;;4.20;;
56830;SDS011;42713;42.676;23.352;2024-02-26T11:23:33;13.55;;;5.53;;
56830;SDS011;42713;42.676;23.352;2024-02-26T11:26:02;11.57;;;4.55;;
56830;SDS011;42713;42.676;23.352;2024-02-26T11:28:31;9.77;;;4.28;;
56830;SDS011;42713;42.676;23.352;2024-02-26T11:30:59;9.90;;;4.45;;
56830;SDS011;42713;42.676;23.352;2024-02-26T11:33:26;10.55;;;4.47;;
56830;SDS011;42713;42.676;23.352;2024-02-26T11:35:53;9.88;;;4.22;;
56830;SDS011;42713;42.676;23.352;2024-02-26T11:38:24;8.10;;;4.43;;
56830;SDS011;42713;42.676;23.352;2024-02-26T11:40:51;8.30;;;4.13;;
56830;SDS011;42713;42.676;23.352;2024-02-26T11:43:18;11.63;;;4.28;;
56830;SDS011;42713;42.676;23.352;2024-02-26T11:45:49;13.40;;;4.38;;
56830;SDS011;42713;42.676;23.352;2024-02-26T11:48:20;8.93;;;4.30;;
56830;SDS011;42713;42.676;23.352;2024-02-26T11:58:59;10.57;;;4.38;;
56830;SDS011;42713;42.676;23.352;2024-02-26T12:01:45;8.65;;;4.13;;
56830;SDS011;42713;42.676;23.352;2024-02-26T12:06:52;11.65;;;4.10;;
56830;SDS011;42713;42.676;23.352;2024-02-26T12:12:06;12.90;;;3.92;;
56830;SDS011;42713;42.676;23.352;2024-02-26T12:14:33;11.23;;;3.60;;
56830;SDS011;42713;42.676;23.352;2024-02-26T12:16:59;9.65;;;3.70;;
56830;SDS011;42713;42.676;23.352;2024-02-26T12:19:26;10.32;;;4.03;;
56830;SDS011;42713;42.676;23.352;2024-02-26T12:21:52;7.43;;;3.65;;
56830;SDS011;42713;42.676;23.352;2024-02-26T12:24:21;12.60;;;4.20;;
56830;SDS011;42713;42.676;23.352;2024-02-26T12:26:46;9.55;;;3.38;;
56830;SDS011;42713;42.676;23.352;2024-02-26T12:29:12;9.45;;;3.95;;
56830;SDS011;42713;42.676;23.352;2024-02-26T12:31:39;8.85;;;4.00;;
56830;SDS011;42713;42.676;23.352;2024-02-26T12:34:06;8.90;;;3.70;;
56830;SDS011;42713;42.676;23.352;2024-02-26T12:36:33;10.45;;;3.83;;
56830;SDS011;42713;42.676;23.352;2024-02-26T12:39:00;9.95;;;4.13;;
56830;SDS011;42713;42.676;23.352;2024-02-26T12:41:31;11.43;;;4.55;;
56830;SDS011;42713;42.676;23.352;2024-02-26T12:43:58;9.45;;;3.65;;
56830;SDS011;42713;42.676;23.352;2024-02-26T12:46:24;9.02;;;3.90;;
56830;SDS011;42713;42.676;23.352;2024-02-26T12:48:49;9.77;;;3.95;;
56830;SDS011;42713;42.676;23.352;2024-02-26T12:51:15;11.68;;;4.78;;
56830;SDS011;42713;42.676;23.352;2024-02-26T12:53:43;8.35;;;3.55;;
56830;SDS011;42713;42.676;23.352;2024-02-26T12:56:10;11.30;;;3.60;;
56830;SDS011;42713;42.676;23.352;2024-02-26T12:58:39;7.72;;;3.20;;
56830;SDS011;42713;42.676;23.352;2024-02-26T13:01:23;10.02;;;3.42;;
56830;SDS011;42713;42.676;23.352;2024-02-26T13:03:51;10.65;;;3.50;;
56830;SDS011;42713;42.676;23.352;2024-02-26T13:06:17;12.40;;;3.47;;
56830;SDS011;42713;42.676;23.352;2024-02-26T13:08:44;10.75;;;3.40;;
56830;SDS011;42713;42.676;23.352;2024-02-26T13:11:10;10.02;;;3.80;;
56830;SDS011;42713;42.676;23.352;2024-02-26T13:13:36;9.80;;;3.83;;
56830;SDS011;42713;42.676;23.352;2024-02-26T13:16:02;11.95;;;3.75;;
56830;SDS011;42713;42.676;23.352;2024-02-26T13:18:33;7.80;;;3.42;;
56830;SDS011;42713;42.676;23.352;2024-02-26T13:23:34;9.35;;;3.55;;
56830;SDS011;42713;42.676;23.352;2024-02-26T13:26:00;8.57;;;3.25;;
56830;SDS011;42713;42.676;23.352;2024-02-26T13:28:25;9.95;;;3.10;;
56830;SDS011;42713;42.676;23.352;2024-02-26T13:30:56;9.48;;;3.53;;
56830;SDS011;42713;42.676;23.352;2024-02-26T13:33:23;11.55;;;3.50;;
56830;SDS011;42713;42.676;23.352;2024-02-26T13:35:49;8.27;;;3.42;;
56830;SDS011;42713;42.676;23.352;2024-02-26T13:38:15;9.50;;;3.53;;
56830;SDS011;42713;42.676;23.352;2024-02-26T13:40:41;8.10;;;3.25;;
56830;SDS011;42713;42.676;23.352;2024-02-26T13:43:06;11.05;;;3.60;;
56830;SDS011;42713;42.676;23.352;2024-02-26T13:45:37;10.98;;;3.55;;
56830;SDS011;42713;42.676;23.352;2024-02-26T13:48:10;12.23;;;3.88;;
56830;SDS011;42713;42.676;23.352;2024-02-26T13:50:54;7.68;;;3.20;;
56830;SDS011;42713;42.676;23.352;2024-02-26T13:53:20;10.25;;;3.50;;
56830;SDS011;42713;42.676;23.352;2024-02-26T13:55:48;10.70;;;3.47;;
56830;SDS011;42713;42.676;23.352;2024-02-26T13:58:15;10.82;;;3.25;;
56830;SDS011;42713;42.676;23.352;2024-02-26T14:00:40;7.57;;;3.40;;
56830;SDS011;42713;42.676;23.352;2024-02-26T14:03:06;8.23;;;3.38;;
56830;SDS011;42713;42.676;23.352;2024-02-26T14:05:32;11.77;;;3.40;;
56830;SDS011;42713;42.676;23.352;2024-02-26T14:07:58;7.22;;;3.33;;
56830;SDS011;42713;42.676;23.352;2024-02-26T14:10:23;6.85;;;2.85;;
56830;SDS011;42713;42.676;23.352;2024-02-26T14:12:49;8.65;;;3.28;;
56830;SDS011;42713;42.676;23.352;2024-02-26T14:15:14;9.55;;;3.45;;
56830;SDS011;42713;42.676;23.352;2024-02-26T14:17:40;8.95;;;3.33;;
56830;SDS011;42713;42.676;23.352;2024-02-26T14:20:06;10.95;;;3.47;;
56830;SDS011;42713;42.676;23.352;2024-02-26T14:22:34;9.60;;;3.30;;
56830;SDS011;42713;42.676;23.352;2024-02-26T14:24:59;8.55;;;3.38;;
56830;SDS011;42713;42.676;23.352;2024-02-26T14:27:25;8.45;;;3.17;;
56830;SDS011;42713;42.676;23.352;2024-02-26T14:29:51;7.75;;;3.20;;